Time;durP1;ratioP1;P1;durP2;ratioP2;P2;SDS_P1;SDS_P2;PMS_P1;PMS_P2;Temp;Humidity;BMP_temperature;BMP_pressure;BME280_temperature;BME280_humidity;BME280_pressure;Samples;Min_cycle;Max_cycle;Signal;HPM_P1;HPM_P2
2023/12/02 00:01:21;;;;;;;41.10;18.45;;;;;;;-0.49;100.00;100328.16;4989436;28;20190;-76
2023/12/02 00:03:46;;;;;;;44.45;20.63;;;;;;;-0.57;100.00;100319.94;4971397;28;20058;-75
2023/12/02 00:06:11;;;;;;;40.92;19.35;;;;;;;-0.51;100.00;100322.16;4989299;28;20053;-76
2023/12/02 00:08:37;;;;;;;42.92;19.38;;;;;;;-0.64;100.00;100309.00;4988815;28;20045;-73
2023/12/02 00:11:05;;;;;;;41.97;19.45;;;;;;;-0.62;100.00;100322.03;4995009;28;20436;-75
2023/12/02 00:13:34;;;;;;;43.28;20.70;;;;;;;-0.53;100.00;100319.63;4986980;28;20038;-75
2023/12/02 00:15:59;;;;;;;40.67;19.80;;;;;;;-0.45;100.00;100324.34;4988449;28;20026;-75
2023/12/02 00:18:24;;;;;;;40.63;18.50;;;;;;;-0.44;100.00;100329.50;4973898;28;20093;-75
2023/12/02 00:20:50;;;;;;;47.60;21.58;;;;;;;-0.46;100.00;100313.03;4972035;28;20033;-76
2023/12/02 00:23:15;;;;;;;40.30;19.15;;;;;;;-0.40;100.00;100318.81;4995553;28;20036;-75
2023/12/02 00:25:40;;;;;;;39.88;18.15;;;;;;;-0.33;100.00;100312.19;4976478;28;20049;-76
2023/12/02 00:28:06;;;;;;;44.83;20.23;;;;;;;-0.49;100.00;100302.75;4993837;28;20065;-76
2023/12/02 00:30:31;;;;;;;40.15;20.55;;;;;;;-0.43;100.00;100297.06;4986396;28;20057;-76
2023/12/02 00:32:57;;;;;;;43.35;20.08;;;;;;;-0.36;100.00;100309.78;4977242;28;20038;-74
2023/12/02 00:35:22;;;;;;;35.67;18.05;;;;;;;-0.43;100.00;100296.25;5003861;28;20080;-74
2023/12/02 00:37:47;;;;;;;41.38;18.73;;;;;;;-0.41;100.00;100285.66;4991259;28;20030;-76
2023/12/02 00:40:13;;;;;;;37.30;18.42;;;;;;;-0.39;100.00;100295.09;4970659;28;20099;-75
2023/12/02 00:42:38;;;;;;;42.03;18.88;;;;;;;-0.37;100.00;100300.25;4987648;28;20034;-76
2023/12/02 00:45:04;;;;;;;44.05;17.42;;;;;;;-0.38;100.00;100290.69;4990867;28;20025;-75
2023/12/02 00:47:29;;;;;;;;;;;;;;;-0.38;100.00;100285.44;4996383;28;20109;-76
2023/12/02 00:49:55;;;;;;;35.30;17.77;;;;;;;-0.38;100.00;100282.81;5004912;28;20012;-75
2023/12/02 00:52:20;;;;;;;37.00;16.80;;;;;;;-0.43;100.00;100275.25;4988792;28;20044;-76
2023/12/02 00:54:45;;;;;;;42.08;19.65;;;;;;;-0.43;100.00;100281.34;4987776;28;20044;-75
2023/12/02 00:57:14;;;;;;;45.80;20.50;;;;;;;-0.43;100.00;100283.97;4987797;28;20126;-75
2023/12/02 00:59:39;;;;;;;48.22;19.10;;;;;;;-0.45;100.00;100288.47;4987896;28;20026;-76
2023/12/02 01:02:08;;;;;;;42.42;20.58;;;;;;;-0.64;100.00;100267.88;4970446;28;20045;-75
2023/12/02 01:04:33;;;;;;;;;;;;;;;-0.50;100.00;100287.94;4970822;28;20026;-75
2023/12/02 01:06:59;;;;;;;43.67;19.73;;;;;;;-0.53;100.00;100277.66;4992886;28;19914;-76
2023/12/02 01:09:25;;;;;;;42.80;18.98;;;;;;;-0.59;100.00;100275.44;4977259;28;20048;-76
2023/12/02 01:11:51;;;;;;;49.00;20.00;;;;;;;-0.59;100.00;100269.38;4994436;28;20026;-76
2023/12/02 01:14:16;;;;;;;45.20;19.80;;;;;;;-0.59;100.00;100278.06;4995539;28;20959;-76
2023/12/02 01:16:41;;;;;;;59.03;21.08;;;;;;;-0.58;100.00;100281.56;4973107;28;20034;-74
2023/12/02 01:19:06;;;;;;;47.65;19.77;;;;;;;-0.56;100.00;100280.50;4990445;28;20042;-74
2023/12/02 01:21:32;;;;;;;46.88;18.27;;;;;;;-0.59;100.00;100280.69;4972618;28;20128;-74
2023/12/02 01:23:57;;;;;;;44.97;20.05;;;;;;;-0.56;100.00;100279.63;4982989;28;20112;-75
2023/12/02 01:26:23;;;;;;;40.88;18.40;;;;;;;-0.61;100.00;100274.69;4997458;28;20025;-75
2023/12/02 01:28:48;;;;;;;43.67;19.00;;;;;;;-0.59;100.00;100275.44;4980581;28;20037;-76
2023/12/02 01:31:14;;;;;;;37.72;17.50;;;;;;;-0.51;100.00;100285.44;5001786;28;20114;-76
2023/12/02 01:33:39;;;;;;;43.13;20.52;;;;;;;-0.53;100.00;100293.41;4969741;28;20030;-76
2023/12/02 01:36:05;;;;;;;45.42;19.27;;;;;;;-0.47;100.00;100295.63;5005133;28;20048;-76
2023/12/02 01:38:30;;;;;;;49.60;20.13;;;;;;;-0.49;100.00;100288.81;5001821;28;20041;-75
2023/12/02 01:40:55;;;;;;;40.38;17.67;;;;;;;-0.51;100.00;100285.44;4978688;28;20420;-76
2023/12/02 01:43:25;;;;;;;37.00;17.02;;;;;;;-0.48;100.00;100286.06;4987839;28;20851;-76
2023/12/02 01:45:51;;;;;;;45.22;18.73;;;;;;;-0.47;100.00;100290.38;4969410;28;20509;-75
2023/12/02 01:48:18;;;;;;;;;;;;;;;-0.45;100.00;100290.25;4976287;28;20029;-74
2023/12/02 01:50:44;;;;;;;44.60;17.55;;;;;;;-0.55;100.00;100276.94;4993696;28;19913;-75
2023/12/02 01:53:10;;;;;;;44.42;18.42;;;;;;;-0.59;100.00;100267.56;4992435;28;20045;-76
2023/12/02 01:55:35;;;;;;;40.55;19.27;;;;;;;-0.53;100.00;100277.66;4978752;28;20055;-75
2023/12/02 01:58:01;;;;;;;43.22;16.67;;;;;;;-0.56;100.00;100283.13;4998983;28;20124;-75
2023/12/02 02:00:27;;;;;;;34.70;17.42;;;;;;;-0.58;100.00;100279.75;4979884;28;21107;-74
2023/12/02 02:02:52;;;;;;;37.53;17.70;;;;;;;-0.50;100.00;100293.19;4993189;28;20034;-74
2023/12/02 02:05:17;;;;;;;34.92;15.32;;;;;;;-0.52;100.00;100294.22;4977629;28;20042;-75
2023/12/02 02:07:43;;;;;;;41.08;17.35;;;;;;;-0.49;100.00;100292.25;4972329;28;20034;-75
2023/12/02 02:10:08;;;;;;;39.97;17.63;;;;;;;-0.52;100.00;100292.44;4986150;28;20030;-76
2023/12/02 02:12:33;;;;;;;36.13;17.27;;;;;;;-0.54;100.00;100291.72;4968783;28;20088;-75
2023/12/02 02:14:59;;;;;;;37.97;17.38;;;;;;;-0.50;100.00;100300.22;4992084;28;20033;-74
2023/12/02 02:17:27;;;;;;;40.40;17.75;;;;;;;-0.46;100.00;100304.31;4998624;28;20038;-75
2023/12/02 02:19:55;;;;;;;39.38;16.30;;;;;;;-0.48;100.00;100301.78;4995088;28;20107;-75
2023/12/02 02:22:21;;;;;;;42.83;17.67;;;;;;;-0.45;100.00;100312.06;4967987;28;20582;-76
2023/12/02 02:24:46;;;;;;;39.85;17.70;;;;;;;-0.41;100.00;100311.88;4986060;28;20082;-76
2023/12/02 02:27:11;;;;;;;40.97;18.35;;;;;;;-0.47;100.00;100303.50;4968452;28;20557;-76
2023/12/02 02:29:37;;;;;;;41.42;17.48;;;;;;;-0.45;100.00;100304.19;5004641;28;20485;-74
2023/12/02 02:32:02;;;;;;;39.13;19.33;;;;;;;-0.48;100.00;100307.03;4996584;28;20032;-73
2023/12/02 02:34:28;;;;;;;41.08;17.95;;;;;;;-0.47;100.00;100306.13;4982025;28;20072;-75
2023/12/02 02:36:53;;;;;;;31.30;15.13;;;;;;;-0.44;100.00;100310.31;4979454;28;20030;-75
2023/12/02 02:39:19;;;;;;;34.10;15.48;;;;;;;-0.49;100.00;100301.91;4983899;28;20038;-75
2023/12/02 02:41:44;;;;;;;29.60;14.23;;;;;;;-0.43;100.00;100309.34;4975483;28;20030;-76
2023/12/02 02:44:09;;;;;;;26.10;14.63;;;;;;;-0.36;100.00;100328.16;5001131;28;20101;-76
2023/12/02 02:46:35;;;;;;;29.67;15.00;;;;;;;-0.45;100.00;100312.06;4975622;28;20041;-75
2023/12/02 02:49:01;;;;;;;32.65;14.32;;;;;;;-0.40;100.00;100303.91;4996104;28;20125;-76
2023/12/02 02:51:26;;;;;;;27.38;14.32;;;;;;;-0.40;100.00;100308.31;4977760;28;20144;-76
2023/12/02 02:53:52;;;;;;;39.05;16.50;;;;;;;-0.41;100.00;100304.03;5003271;28;20142;-74
2023/12/02 02:56:19;;;;;;;29.85;13.63;;;;;;;-0.35;100.00;100311.47;5007024;28;20049;-74
2023/12/02 02:58:45;;;;;;;30.15;14.38;;;;;;;-0.33;100.00;100304.31;4980609;28;20508;-76
2023/12/02 03:01:10;;;;;;;34.65;16.52;;;;;;;-0.33;100.00;100307.81;4984345;28;20081;-76
2023/12/02 03:03:36;;;;;;;28.83;14.57;;;;;;;-0.32;100.00;100303.41;4997210;28;20041;-75
2023/12/02 03:06:01;;;;;;;28.42;13.32;;;;;;;-0.31;100.00;100307.69;4979860;28;20088;-75
2023/12/02 03:08:26;;;;;;;30.38;15.77;;;;;;;-0.39;100.00;100294.28;5002285;28;20141;-74
2023/12/02 03:10:52;;;;;;;28.50;14.70;;;;;;;-0.37;100.00;100297.63;4981192;28;20066;-74
2023/12/02 03:13:17;;;;;;;32.17;15.88;;;;;;;-0.33;100.00;100299.06;4974222;28;20073;-75
2023/12/02 03:15:42;;;;;;;35.15;16.25;;;;;;;-0.27;100.00;100306.56;4997031;28;20092;-76
2023/12/02 03:18:08;;;;;;;30.77;14.65;;;;;;;-0.35;100.00;100296.59;5000613;28;20038;-74
2023/12/02 03:20:34;;;;;;;31.85;14.82;;;;;;;-0.31;100.00;100300.66;4979605;28;20049;-76
2023/12/02 03:22:59;;;;;;;27.63;14.52;;;;;;;-0.26;100.00;100306.47;4979626;28;20081;-76
2023/12/02 03:25:25;;;;;;;30.85;14.38;;;;;;;-0.21;100.00;100308.78;4973650;28;20049;-76
2023/12/02 03:27:51;;;;;;;24.05;12.68;;;;;;;-0.23;100.00;100306.25;4998932;28;20022;-76
2023/12/02 03:30:16;;;;;;;26.80;13.43;;;;;;;-0.30;100.00;100297.09;4991476;28;20120;-75
2023/12/02 03:32:45;;;;;;;21.92;12.85;;;;;;;-0.25;100.00;100307.28;5000073;28;20244;-74
2023/12/02 03:35:10;;;;;;;23.58;12.68;;;;;;;-0.29;100.00;100303.19;4979393;28;20037;-75
2023/12/02 03:37:38;;;;;;;30.30;12.77;;;;;;;-0.31;100.00;100292.78;4979720;28;20029;-75
2023/12/02 03:40:05;;;;;;;27.38;12.35;;;;;;;-0.29;100.00;100293.53;4982427;28;20045;-75
2023/12/02 03:42:30;;;;;;;32.33;14.50;;;;;;;-0.43;100.00;100283.97;4997376;28;20045;-75
2023/12/02 03:44:55;;;;;;;29.92;13.40;;;;;;;-0.39;100.00;100284.59;4991536;28;20300;-75
2023/12/02 03:47:21;;;;;;;32.10;14.18;;;;;;;-0.45;100.00;100285.00;5006001;28;20145;-75
2023/12/02 03:49:46;;;;;;;26.88;14.40;;;;;;;-0.34;100.00;100293.00;4997593;28;20109;-75
2023/12/02 03:52:11;;;;;;;30.88;14.88;;;;;;;-0.31;100.00;100298.03;4999712;28;20038;-75
2023/12/02 03:54:37;;;;;;;29.73;14.65;;;;;;;-0.31;100.00;100291.94;4997366;28;20026;-75
2023/12/02 03:57:02;;;;;;;25.65;12.65;;;;;;;-0.32;100.00;100293.75;4996032;28;20125;-74
2023/12/02 03:59:27;;;;;;;31.67;14.52;;;;;;;-0.42;100.00;100282.19;4971133;28;20137;-74
2023/12/02 04:01:53;;;;;;;31.45;15.85;;;;;;;-0.36;100.00;100294.88;4996129;28;20041;-75
2023/12/02 04:04:21;;;;;;;33.47;15.73;;;;;;;-0.39;100.00;100283.78;4970624;28;20030;-75
2023/12/02 04:06:46;;;;;;;31.23;14.75;;;;;;;-0.36;100.00;100294.06;4992883;28;20030;-75
2023/12/02 04:09:12;;;;;;;32.63;15.48;;;;;;;-0.29;100.00;100303.19;5006812;28;20040;-75
2023/12/02 04:11:37;;;;;;;28.73;14.13;;;;;;;-0.31;100.00;100297.19;4998824;28;20120;-75
2023/12/02 04:14:02;;;;;;;30.40;15.82;;;;;;;-0.33;100.00;100299.06;4999167;28;20037;-75
2023/12/02 04:16:28;;;;;;;28.40;13.95;;;;;;;-0.29;100.00;100301.41;4996507;28;20031;-75
2023/12/02 04:18:53;;;;;;;35.40;15.68;;;;;;;-0.33;100.00;100305.19;4976568;28;20497;-75
2023/12/02 04:21:18;;;;;;;31.45;16.17;;;;;;;-0.31;100.00;100303.28;5001220;28;20382;-75
2023/12/02 04:23:44;;;;;;;28.27;13.65;;;;;;;-0.33;100.00;100299.06;4996330;28;20581;-75
2023/12/02 04:26:10;;;;;;;27.80;14.73;;;;;;;-0.29;100.00;100311.88;5006513;28;20099;-74
2023/12/02 04:28:35;;;;;;;32.08;14.63;;;;;;;-0.25;100.00;100315.16;5003583;28;20025;-75
2023/12/02 04:31:01;;;;;;;33.08;15.65;;;;;;;-0.29;100.00;100309.25;4975584;28;20105;-75
2023/12/02 04:33:27;;;;;;;31.35;15.25;;;;;;;-0.32;100.00;100308.66;4987770;28;20073;-74
2023/12/02 04:35:53;;;;;;;33.58;16.27;;;;;;;-0.31;100.00;100312.94;5006296;28;20073;-75
2023/12/02 04:38:19;;;;;;;;;;;;;;;-0.30;100.00;100315.47;4981542;28;20053;-75
2023/12/02 04:40:44;;;;;;;28.45;15.00;;;;;;;-0.28;100.00;100318.84;4995944;28;19976;-75
2023/12/02 04:43:10;;;;;;;30.73;13.57;;;;;;;-0.28;100.00;100315.34;4999237;28;20034;-75
2023/12/02 04:45:35;;;;;;;34.42;15.48;;;;;;;-0.32;100.00;100313.91;5003476;28;20023;-74
2023/12/02 04:48:04;;;;;;;32.15;14.32;;;;;;;-0.26;100.00;100326.56;5006516;28;20056;-75
2023/12/02 04:50:29;;;;;;;29.20;13.82;;;;;;;-0.23;100.00;100332.47;5000947;28;20030;-74
2023/12/02 04:52:54;;;;;;;26.38;12.77;;;;;;;-0.31;100.00;100320.81;4975883;28;20085;-75
2023/12/02 04:55:20;;;;;;;30.73;15.00;;;;;;;-0.28;100.00;100328.47;4989958;28;20124;-75
2023/12/02 04:57:45;;;;;;;30.50;14.90;;;;;;;-0.22;100.00;100334.13;5006022;28;20057;-74
2023/12/02 05:00:14;;;;;;;29.65;14.95;;;;;;;-0.22;100.00;100334.13;4974192;28;20033;-75
2023/12/02 05:02:41;;;;;;;25.15;13.50;;;;;;;-0.22;100.00;100330.69;4970078;28;20030;-75
2023/12/02 05:05:08;;;;;;;29.92;12.43;;;;;;;-0.23;100.00;100332.47;4970125;28;20046;-74
2023/12/02 05:07:33;;;;;;;22.20;11.82;;;;;;;-0.19;100.00;100337.50;4987372;28;20026;-75
2023/12/02 05:09:59;;;;;;;25.60;12.43;;;;;;;-0.20;100.00;100336.69;4987741;28;20084;-75
2023/12/02 05:12:24;;;;;;;28.08;12.75;;;;;;;-0.18;100.00;100340.03;4969603;28;20026;-75
2023/12/02 05:14:49;;;;;;;29.42;13.93;;;;;;;-0.18;100.00;100345.28;4969309;28;20050;-75
2023/12/02 05:17:15;;;;;;;25.30;12.50;;;;;;;-0.14;100.00;100345.91;5005245;28;20025;-74
2023/12/02 05:19:40;;;;;;;24.25;12.77;;;;;;;-0.11;100.00;100346.56;4987460;28;20444;-75
2023/12/02 05:22:08;;;;;;;22.83;11.05;;;;;;;-0.13;100.00;100348.44;4986822;28;20027;-75
2023/12/02 05:24:52;;;;;;;24.02;12.07;;;;;;;-0.14;100.00;100352.00;5005643;28;20080;-75
2023/12/02 05:27:36;;;;;;;20.65;10.80;;;;;;;-0.09;100.00;100346.47;4987365;28;20070;-75
2023/12/02 05:30:20;;;;;;;22.08;11.48;;;;;;;-0.17;100.00;100333.00;4986944;28;20113;-75
2023/12/02 05:33:04;;;;;;;24.10;12.00;;;;;;;-0.13;100.00;100340.56;5005241;28;20072;-75
2023/12/02 05:35:49;;;;;;;21.52;11.27;;;;;;;-0.14;100.00;100331.03;4996079;28;20053;-75
2023/12/02 05:38:33;;;;;;;24.10;11.55;;;;;;;-0.15;100.00;100323.25;5000022;28;20052;-75
2023/12/02 05:41:17;;;;;;;26.92;12.02;;;;;;;-0.17;100.00;100325.13;5001608;28;20131;-74
2023/12/02 05:44:00;;;;;;;27.17;12.85;;;;;;;-0.14;100.00;100319.66;4986887;28;20068;-75
2023/12/02 05:46:44;;;;;;;25.50;12.13;;;;;;;-0.11;100.00;100329.97;4987036;28;20070;-75
2023/12/02 05:49:28;;;;;;;25.63;13.10;;;;;;;-0.21;100.00;100324.50;4986672;28;20057;-75
2023/12/02 05:52:12;;;;;;;20.27;10.80;;;;;;;-0.16;100.00;100329.44;4986356;28;20433;-75
2023/12/02 05:54:56;;;;;;;23.00;10.80;;;;;;;-0.13;100.00;100331.84;5002622;28;20146;-75
2023/12/02 05:57:22;;;;;;;24.10;11.55;;;;;;;-0.13;100.00;100334.47;4979695;28;20116;-74
2023/12/02 05:59:50;;;;;;;26.85;12.55;;;;;;;-0.14;100.00;100330.16;4977334;28;20704;-75
2023/12/02 06:02:15;;;;;;;25.95;13.45;;;;;;;-0.14;100.00;100327.53;4994207;28;20026;-75
2023/12/02 06:04:41;;;;;;;30.58;13.05;;;;;;;-0.16;100.00;100329.44;4986577;28;20973;-75
2023/12/02 06:07:07;;;;;;;;;;;;;;;-0.14;100.00;100328.41;4986835;28;20046;-75
2023/12/02 06:09:32;;;;;;;24.65;12.27;;;;;;;-0.15;100.00;100321.44;4986298;28;19921;-75
2023/12/02 06:11:57;;;;;;;22.55;12.07;;;;;;;-0.16;100.00;100322.41;5004434;28;20034;-75
2023/12/02 06:14:23;;;;;;;26.98;12.73;;;;;;;-0.19;100.00;100322.59;4971028;28;20035;-75
2023/12/02 06:16:48;;;;;;;26.27;11.98;;;;;;;-0.19;100.00;100324.38;4981351;28;20042;-75
2023/12/02 06:19:14;;;;;;;26.65;12.48;;;;;;;-0.20;100.00;100320.94;4998013;28;20034;-75
2023/12/02 06:21:39;;;;;;;;;;;;;;;-0.13;100.00;100330.06;4972281;28;20038;-75
2023/12/02 06:24:05;;;;;;;21.40;11.52;;;;;;;-0.15;100.00;100326.69;4973531;28;20558;-75
2023/12/02 06:26:30;;;;;;;24.70;12.85;;;;;;;-0.24;100.00;100320.28;4986056;28;20034;-75
2023/12/02 06:28:56;;;;;;;27.92;13.18;;;;;;;-0.25;100.00;100318.63;4986851;28;20038;-75
2023/12/02 06:31:21;;;;;;;28.52;12.25;;;;;;;-0.18;100.00;100326.09;4986643;28;20117;-75
2023/12/02 06:33:47;;;;;;;24.45;11.68;;;;;;;-0.18;100.00;100332.16;4986632;28;20030;-75
2023/12/02 06:36:13;;;;;;;25.73;12.40;;;;;;;-0.30;100.00;100319.88;4986605;28;20074;-75
2023/12/02 06:38:38;;;;;;;23.60;11.82;;;;;;;-0.27;100.00;100315.25;4986814;28;20034;-75
2023/12/02 06:41:04;;;;;;;26.38;12.15;;;;;;;-0.26;100.00;100326.56;4986235;28;20113;-75
2023/12/02 06:43:29;;;;;;;23.58;11.98;;;;;;;-0.40;100.00;100308.31;5002603;28;20029;-75
2023/12/02 06:45:55;;;;;;;23.65;11.13;;;;;;;-0.39;100.00;100320.50;4986465;28;20041;-75
2023/12/02 06:48:20;;;;;;;17.20;9.13;;;;;;;-0.33;100.00;100323.56;5010074;28;20467;-75
2023/12/02 06:50:45;;;;;;;20.00;9.48;;;;;;;-0.34;100.00;100321.03;4969166;28;20025;-75
2023/12/02 06:53:15;;;;;;;17.13;9.25;;;;;;;-0.34;100.00;100323.66;5004322;28;20141;-75
2023/12/02 06:55:43;;;;;;;18.25;8.18;;;;;;;-0.34;100.00;100324.47;4986209;28;20045;-76
2023/12/02 06:58:09;;;;;;;14.68;8.63;;;;;;;-0.33;100.00;100323.56;4969165;28;20044;-75
2023/12/02 07:00:35;;;;;;;18.50;8.73;;;;;;;-0.42;100.00;100313.69;5002697;28;20034;-76
2023/12/02 07:03:03;;;;;;;15.52;8.00;;;;;;;-0.40;100.00;100306.53;5008430;28;20050;-76
2023/12/02 07:05:28;;;;;;;16.10;9.30;;;;;;;-0.35;100.00;100316.69;4970336;28;20057;-75
2023/12/02 07:07:54;;;;;;;15.70;7.85;;;;;;;-0.43;100.00;100312.81;4968803;28;20454;-75
2023/12/02 07:10:19;;;;;;;16.58;8.45;;;;;;;-0.37;100.00;100316.00;5002433;28;20033;-76
2023/12/02 07:12:45;;;;;;;15.43;7.93;;;;;;;-0.45;100.00;100309.44;5001021;28;20053;-76
2023/12/02 07:15:11;;;;;;;15.57;8.27;;;;;;;-0.55;100.00;100308.41;4986357;28;20042;-76
2023/12/02 07:17:36;;;;;;;16.38;7.38;;;;;;;-0.58;100.00;100320.88;4979308;28;20030;-75
2023/12/02 07:20:02;;;;;;;15.82;7.43;;;;;;;-0.54;100.00;100323.19;4997757;28;20116;-75
2023/12/02 07:22:27;;;;;;;15.23;6.75;;;;;;;-0.54;100.00;100323.19;5020078;28;20716;-75
2023/12/02 07:24:53;;;;;;;12.07;5.82;;;;;;;-0.51;100.00;100327.41;5004699;28;20608;-75
2023/12/02 07:27:18;;;;;;;12.27;6.10;;;;;;;-0.54;100.00;100317.09;4989156;28;20530;-75
2023/12/02 07:29:44;;;;;;;9.55;5.22;;;;;;;-0.61;100.00;100315.81;4972518;28;20030;-75
2023/12/02 07:32:09;;;;;;;9.38;4.65;;;;;;;-0.58;100.00;100316.47;4990248;28;20124;-76
2023/12/02 07:34:35;;;;;;;10.35;4.65;;;;;;;-0.50;100.00;100322.03;4986105;28;20508;-75
2023/12/02 07:37:00;;;;;;;10.77;5.68;;;;;;;-0.52;100.00;100316.03;4980536;28;20405;-74
2023/12/02 07:39:25;;;;;;;10.00;4.35;;;;;;;-0.49;100.00;100315.88;4995419;28;20118;-76
2023/12/02 07:41:51;;;;;;;8.23;4.28;;;;;;;-0.58;100.00;100300.75;4982394;28;20026;-76
2023/12/02 07:44:17;;;;;;;7.68;4.25;;;;;;;-0.68;100.00;100289.16;4991704;28;20401;-74
2023/12/02 07:46:42;;;;;;;;;;;;;;;-0.66;100.00;100305.63;4972550;28;20113;-75
2023/12/02 07:49:07;;;;;;;7.90;4.20;;;;;;;-0.62;100.00;100301.88;4989114;28;20539;-75
2023/12/02 07:51:33;;;;;;;9.93;4.85;;;;;;;-0.54;100.00;100317.97;4993677;28;20042;-75
2023/12/02 07:53:59;;;;;;;8.07;4.10;;;;;;;-0.58;100.00;100310.41;4983323;28;20042;-74
2023/12/02 07:56:24;;;;;;;9.25;4.78;;;;;;;-0.50;100.00;100314.16;4983459;28;20041;-75
2023/12/02 07:58:49;;;;;;;7.40;4.45;;;;;;;-0.44;100.00;100318.19;4994000;28;20034;-75
2023/12/02 08:01:15;;;;;;;7.75;4.65;;;;;;;-0.44;100.00;100319.00;4988833;28;20038;-75
2023/12/02 08:03:40;;;;;;;6.68;3.78;;;;;;;-0.34;100.00;100326.28;5004123;28;20053;-75
2023/12/02 08:06:06;;;;;;;7.63;4.03;;;;;;;-0.37;100.00;100319.44;5007104;28;20816;-75
2023/12/02 08:08:31;;;;;;;5.88;3.78;;;;;;;-0.33;100.00;100314.81;4990162;28;20150;-75
2023/12/02 08:10:57;;;;;;;6.10;3.65;;;;;;;-0.28;100.00;100304.84;4990451;28;20619;-74
2023/12/02 08:13:23;;;;;;;7.90;3.85;;;;;;;-0.38;100.00;100291.53;5006116;28;20049;-76
2023/12/02 08:15:48;;;;;;;7.22;3.30;;;;;;;-0.36;100.00;100292.25;4988324;28;20034;-75
2023/12/02 08:18:15;;;;;;;9.38;4.15;;;;;;;-0.35;100.00;100290.47;4975375;28;20064;-75
2023/12/02 08:20:41;;;;;;;8.15;3.90;;;;;;;-0.18;100.00;100308.56;5003763;28;20113;-75
2023/12/02 08:23:06;;;;;;;8.13;4.43;;;;;;;-0.12;100.00;100305.50;4970697;28;20057;-75
2023/12/02 08:25:31;;;;;;;7.13;3.72;;;;;;;-0.36;100.00;100271.28;4988142;28;20078;-74
2023/12/02 08:27:57;;;;;;;8.05;2.92;;;;;;;-0.37;100.00;100269.63;5006913;28;20025;-74
2023/12/02 08:30:23;;;;;;;5.53;3.28;;;;;;;-0.26;100.00;100290.72;4973683;28;20073;-74
2023/12/02 08:32:48;;;;;;;7.55;3.42;;;;;;;-0.31;100.00;100291.94;4971156;28;20605;-75
2023/12/02 08:35:14;;;;;;;6.57;3.60;;;;;;;-0.38;100.00;100285.44;4989282;28;20046;-75
2023/12/02 08:37:39;;;;;;;9.40;4.07;;;;;;;-0.26;100.00;100305.59;4955074;28;20042;-74
2023/12/02 08:40:05;;;;;;;7.32;4.20;;;;;;;-0.38;100.00;100281.03;5006531;28;20038;-75
2023/12/02 08:42:30;;;;;;;;;;;;;;;-0.33;100.00;100294.69;4972661;28;20038;-75
2023/12/02 08:44:56;;;;;;;7.18;4.10;;;;;;;-0.34;100.00;100287.75;4970680;28;19924;-76
2023/12/02 08:47:21;;;;;;;5.75;2.78;;;;;;;-0.38;100.00;100293.31;4979146;28;20029;-75
2023/12/02 08:49:46;;;;;;;7.45;3.58;;;;;;;-0.41;100.00;100288.28;4976195;28;20117;-74
2023/12/02 08:52:12;;;;;;;5.68;3.28;;;;;;;-0.27;100.00;100311.78;4988272;28;20073;-75
2023/12/02 08:54:37;;;;;;;5.65;3.30;;;;;;;-0.18;100.00;100313.81;4987711;28;20074;-75
2023/12/02 08:57:02;;;;;;;5.25;3.28;;;;;;;-0.23;100.00;100295.75;5006233;28;20084;-76
2023/12/02 08:59:28;;;;;;;7.43;3.50;;;;;;;-0.08;100.00;100306.97;4972586;28;20513;-75
2023/12/02 09:01:53;;;;;;;6.85;3.45;;;;;;;-0.01;100.00;100308.22;4987479;28;20026;-75
2023/12/02 09:04:19;;;;;;;6.88;3.67;;;;;;;0.05;100.00;100314.84;4987871;28;20208;-75
2023/12/02 09:06:44;;;;;;;7.97;3.45;;;;;;;-0.01;100.00;100294.28;4970016;28;20062;-75
2023/12/02 09:09:10;;;;;;;7.72;4.18;;;;;;;0.16;100.00;100311.47;4989597;28;20507;-75
2023/12/02 09:11:35;;;;;;;11.10;5.03;;;;;;;0.22;100.00;100311.06;4988366;28;20889;-75
2023/12/02 09:14:01;;;;;;;11.02;4.18;;;;;;;0.19;100.00;100295.53;4970627;28;20049;-76
2023/12/02 09:16:28;;;;;;;8.85;4.85;;;;;;;0.18;100.00;100285.94;4969430;28;20065;-74
2023/12/02 09:18:54;;;;;;;7.13;3.53;;;;;;;0.09;100.00;100279.56;5000796;28;20038;-76
2023/12/02 09:21:44;;;;;;;6.88;3.63;;;;;;;0.33;100.00;100313.78;5004721;28;20040;-75
2023/12/02 09:24:34;;;;;;;7.03;3.60;;;;;;;0.34;100.00;100294.44;4981219;28;20041;-75
2023/12/02 09:27:00;;;;;;;7.60;4.15;;;;;;;0.34;100.00;100283.09;4993093;28;20026;-75
2023/12/02 09:29:34;;;;;;;9.20;4.55;;;;;;;0.33;100.00;100276.19;4986952;28;20525;-75
2023/12/02 09:32:22;;;;;;;9.02;4.10;;;;;;;0.39;100.00;100266.06;4974681;28;20089;-76
2023/12/02 09:34:56;;;;;;;7.18;3.78;;;;;;;0.54;100.00;100271.16;4976536;28;20084;-75
2023/12/02 09:37:52;;;;;;;10.23;5.32;;;;;;;0.67;100.00;100282.47;4977970;28;20056;-74
2023/12/02 09:40:23;;;;;;;7.78;4.55;;;;;;;0.78;100.00;100285.19;4988777;28;20066;-75
2023/12/02 09:43:11;;;;;;;8.45;3.58;;;;;;;0.73;100.00;100244.44;4968998;28;20034;-75
2023/12/02 09:45:56;;;;;;;8.52;4.25;;;;;;;0.56;100.00;100214.97;4972110;28;20096;-76
2023/12/02 09:48:28;;;;;;;8.60;4.05;;;;;;;0.55;100.00;100212.44;4998111;28;20496;-74
2023/12/02 09:51:14;;;;;;;8.35;4.95;;;;;;;0.57;100.00;100221.06;4984867;28;20038;-75
2023/12/02 09:53:49;;;;;;;8.85;4.32;;;;;;;0.65;100.00;100221.31;5012368;28;20038;-76
2023/12/02 09:56:19;;;;;;;15.30;5.38;;;;;;;0.24;100.00;100141.13;4996443;28;20037;-75
2023/12/02 09:58:46;;;;;;;8.30;4.50;;;;;;;0.49;100.00;100202.38;5001439;28;20122;-75
2023/12/02 10:01:30;;;;;;;8.55;4.50;;;;;;;0.59;100.00;100206.84;4990165;28;20124;-75
2023/12/02 10:04:18;;;;;;;9.70;4.10;;;;;;;0.39;100.00;100157.53;4986496;28;20036;-76
2023/12/02 10:06:50;;;;;;;8.98;4.20;;;;;;;0.71;100.00;100218.25;4976823;28;20036;-76
2023/12/02 10:09:34;;;;;;;8.20;4.10;;;;;;;0.88;100.00;100217.00;4973590;28;20044;-76
2023/12/02 10:12:19;;;;;;;6.93;3.40;;;;;;;1.04;100.00;100200.94;4968740;28;20030;-76
2023/12/02 10:14:50;;;;;;;7.67;4.60;;;;;;;1.26;100.00;100211.53;4968782;28;20501;-75
2023/12/02 10:17:18;;;;;;;6.72;3.72;;;;;;;1.33;100.00;100166.34;4987974;28;21057;-75
2023/12/02 10:19:56;;;;;;;9.43;4.45;;;;;;;1.54;100.00;100158.59;4973693;28;20034;-75
2023/12/02 10:22:23;;;;;;;8.38;4.85;;;;;;;1.54;100.00;100122.59;4995279;28;20033;-75
2023/12/02 10:25:07;;;;;;;10.60;4.57;;;;;;;1.62;100.00;100109.69;4994894;28;20203;-75
2023/12/02 10:27:38;;;;;;;8.57;4.53;;;;;;;1.56;100.00;100068.06;5004788;28;20042;-75
2023/12/02 10:30:09;;;;;;;7.97;4.07;;;;;;;1.31;100.00;100028.84;4986409;28;20049;-75
2023/12/02 10:33:02;;;;;;;10.77;5.20;;;;;;;1.37;100.00;100060.78;4976697;28;21022;-74
2023/12/02 10:35:31;;;;;;;10.13;5.25;;;;;;;0.98;100.00;99980.59;4976836;28;20042;-76
2023/12/02 10:38:34;;;;;;;8.02;4.43;;;;;;;0.88;100.00;100043.53;4986344;28;20061;-76
2023/12/02 10:41:17;;;;;;;7.65;4.28;;;;;;;0.69;100.00;100044.13;4994118;28;20078;-74
2023/12/02 10:43:44;;;;;;;11.40;5.60;;;;;;;0.88;100.00;100109.25;4986466;28;20030;-76
2023/12/02 10:46:11;;;;;;;9.65;5.45;;;;;;;1.04;100.00;100141.31;4973822;28;20089;-76
2023/12/02 10:48:39;;;;;;;10.48;5.28;;;;;;;1.08;100.00;100162.97;4952286;28;20034;-76
2023/12/02 10:51:06;;;;;;;8.70;4.72;;;;;;;1.10;100.00;100147.91;4968690;28;20088;-76
2023/12/02 10:53:34;;;;;;;9.52;3.97;;;;;;;1.00;100.00;100129.34;4968361;28;20050;-75
2023/12/02 10:56:11;;;;;;;7.07;4.18;;;;;;;0.89;100.00;100107.44;4968779;28;20018;-76
2023/12/02 10:58:43;;;;;;;9.57;4.07;;;;;;;0.60;100.00;100057.94;5008173;28;20125;-77
2023/12/02 11:01:09;;;;;;;7.28;3.65;;;;;;;1.04;100.00;100169.41;5000419;28;20100;-76
2023/12/02 11:03:46;;;;;;;9.88;3.75;;;;;;;1.19;100.00;100160.34;4970490;28;20132;-76
2023/12/02 11:06:27;;;;;;;11.18;3.83;;;;;;;1.29;100.00;100134.19;5001047;28;20092;-75
2023/12/02 11:09:06;;;;;;;6.32;4.10;;;;;;;1.36;100.00;100103.84;4993523;28;20069;-76
2023/12/02 11:12:23;;;;;;;8.40;2.88;;;;;;;1.37;100.00;100057.31;4967955;28;20042;-75
2023/12/02 11:15:02;;;;;;;5.53;3.33;;;;;;;1.42;100.00;100008.63;4932007;29;20058;-76